createdAt,value
2023-04-12T00:02:44.867Z,2.53
2023-04-12T00:05:55.031Z,3.10
2023-04-12T00:08:58.742Z,2.87
2023-04-12T00:12:02.891Z,2.90
2023-04-12T00:15:08.263Z,2.80
2023-04-12T00:18:11.979Z,2.50
2023-04-12T00:21:19.596Z,3.13
2023-04-12T00:24:23.145Z,2.77
2023-04-12T00:27:26.704Z,3.10
2023-04-12T00:30:30.464Z,2.73
2023-04-12T00:33:35.483Z,3.10
2023-04-12T00:36:40.433Z,3.03
2023-04-12T00:39:44.395Z,2.97
2023-04-12T00:42:48.165Z,2.37
2023-04-12T00:45:51.804Z,3.17
2023-04-12T00:48:56.938Z,3.10
2023-04-12T00:52:06.367Z,2.93
2023-04-12T00:55:11.196Z,2.67
2023-04-12T00:58:16.207Z,2.90
2023-04-12T01:01:19.778Z,2.43
2023-04-12T01:04:26.535Z,2.57
2023-04-12T01:07:45.764Z,2.83
2023-04-12T01:11:02.543Z,2.30
2023-04-12T01:14:13.004Z,2.37
2023-04-12T01:17:25.134Z,3.03
2023-04-12T01:20:37.484Z,2.87
2023-04-12T01:24:08.082Z,2.83
2023-04-12T01:27:19.841Z,3.00
2023-04-12T01:30:26.198Z,3.10
2023-04-12T01:33:31.649Z,3.40
2023-04-12T01:36:36.794Z,3.50
2023-04-12T01:39:41.632Z,3.33
2023-04-12T01:42:46.664Z,3.40
2023-04-12T01:45:50.591Z,3.10
2023-04-12T01:48:55.880Z,2.83
2023-04-12T01:52:08.635Z,3.00
2023-04-12T01:55:16.332Z,2.60
2023-04-12T01:58:23.818Z,2.87
2023-04-12T02:01:29.700Z,2.50
2023-04-12T02:04:34.906Z,3.03
2023-04-12T02:07:38.894Z,2.70
2023-04-12T02:10:42.429Z,3.10
2023-04-12T02:13:47.251Z,2.80
2023-04-12T02:16:51.076Z,2.53
2023-04-12T02:19:55.738Z,3.17
2023-04-12T02:23:00.363Z,2.73
2023-04-12T02:26:04.674Z,2.40
2023-04-12T02:29:11.004Z,2.27
2023-04-12T02:32:14.475Z,2.47
2023-04-12T02:35:18.631Z,2.60
2023-04-12T02:38:22.113Z,2.63
2023-04-12T02:41:26.403Z,3.27
2023-04-12T02:44:32.340Z,2.40
2023-04-12T02:47:36.072Z,2.27
2023-04-12T02:50:39.819Z,2.63
2023-04-12T02:53:43.538Z,2.57
2023-04-12T02:56:47.000Z,2.57
2023-04-12T02:59:54.158Z,2.77
2023-04-12T03:02:59.145Z,2.03
2023-04-12T03:06:03.481Z,2.70
2023-04-12T03:09:06.979Z,2.23
2023-04-12T03:12:10.695Z,2.00
2023-04-12T03:15:15.625Z,2.40
2023-04-12T03:18:21.217Z,2.00
2023-04-12T03:21:24.745Z,2.00
2023-04-12T03:24:28.527Z,2.13
2023-04-12T03:27:32.076Z,1.77
2023-04-12T03:30:36.985Z,2.43
2023-04-12T03:33:41.024Z,2.30
2023-04-12T03:36:44.704Z,2.03
2023-04-12T03:39:48.878Z,2.73
2023-04-12T03:42:52.680Z,2.07
2023-04-12T03:45:57.624Z,2.60
2023-04-12T03:49:01.503Z,2.60
2023-04-12T03:52:06.080Z,2.97
2023-04-12T03:55:12.045Z,2.57
2023-04-12T03:58:16.434Z,2.87
2023-04-12T04:01:21.876Z,2.93
2023-04-12T04:04:25.614Z,3.03
2023-04-12T04:07:29.339Z,2.93
2023-04-12T04:10:33.106Z,2.83
2023-04-12T04:13:36.618Z,3.53
2023-04-12T04:16:41.476Z,3.60
2023-04-12T04:19:45.007Z,2.97
2023-04-12T04:22:48.905Z,3.27
2023-04-12T04:25:54.401Z,3.50
2023-04-12T04:29:01.777Z,3.23
2023-04-12T04:32:07.644Z,3.77
2023-04-12T04:35:12.382Z,3.07
2023-04-12T04:38:16.245Z,3.53
2023-04-12T04:41:22.656Z,3.40
2023-04-12T04:44:26.115Z,3.53
2023-04-12T04:47:31.700Z,4.67
2023-04-12T04:50:35.383Z,3.73
2023-04-12T04:53:40.991Z,4.13
2023-04-12T04:56:44.644Z,4.20
2023-04-12T04:59:49.381Z,4.47
2023-04-12T05:02:54.445Z,4.20
2023-04-12T05:05:58.256Z,4.50
2023-04-12T05:09:01.809Z,3.70
2023-04-12T05:12:05.935Z,4.17
2023-04-12T05:15:12.369Z,4.43
2023-04-12T05:18:18.166Z,4.20
2023-04-12T05:21:24.083Z,4.60
2023-04-12T05:24:27.965Z,4.13
2023-04-12T05:27:32.048Z,3.43
2023-04-12T05:30:35.557Z,3.87
2023-04-12T05:33:40.593Z,3.50
2023-04-12T05:36:44.609Z,3.23
2023-04-12T05:39:48.180Z,2.97
2023-04-12T05:42:51.731Z,2.83
2023-04-12T05:45:55.442Z,3.47
2023-04-12T05:49:00.385Z,3.47
2023-04-12T05:52:04.767Z,3.37
2023-04-12T05:55:09.215Z,2.93
2023-04-12T05:58:13.330Z,3.47
2023-04-12T06:01:21.242Z,2.63
2023-04-12T06:04:42.210Z,2.70
2023-04-12T06:07:50.651Z,3.47
2023-04-12T06:10:54.295Z,3.53
2023-04-12T06:14:00.637Z,2.63
2023-04-12T06:17:06.252Z,2.90
2023-04-12T06:20:13.208Z,3.43
2023-04-12T06:23:18.248Z,3.23
2023-04-12T06:26:22.067Z,2.80
2023-04-12T06:29:25.528Z,2.60
2023-04-12T06:32:29.566Z,2.90
2023-04-12T06:35:34.461Z,3.20
2023-04-12T06:38:38.261Z,3.00
2023-04-12T06:41:43.632Z,2.80
2023-04-12T06:44:47.176Z,2.67
2023-04-12T06:47:51.161Z,2.40
2023-04-12T06:50:56.063Z,3.07
2023-04-12T06:53:59.585Z,2.47
2023-04-12T06:57:03.391Z,2.53
2023-04-12T07:00:08.936Z,2.50
2023-04-12T07:03:12.730Z,2.53
2023-04-12T07:06:25.152Z,2.03
2023-04-12T07:09:33.448Z,2.20
2023-04-12T07:12:36.998Z,2.50
2023-04-12T07:15:40.921Z,2.73
2023-04-12T07:18:44.531Z,2.17
2023-04-12T07:21:49.612Z,2.03
2023-04-12T07:24:53.385Z,2.30
2023-04-12T07:27:57.057Z,2.00
2023-04-12T07:31:00.646Z,2.33
2023-04-12T07:34:04.441Z,2.10
2023-04-12T07:37:09.544Z,2.33
2023-04-12T07:40:14.777Z,1.97
2023-04-12T07:43:18.557Z,1.77
2023-04-12T07:46:22.404Z,2.23
2023-04-12T07:49:26.357Z,2.10
2023-04-12T07:52:31.474Z,1.97
2023-04-12T07:55:35.110Z,1.80
2023-04-12T07:58:39.048Z,2.50
2023-04-12T08:01:42.700Z,2.07
2023-04-12T08:04:46.723Z,1.93
2023-04-12T08:07:51.824Z,2.50
2023-04-12T08:10:55.428Z,1.87
2023-04-12T08:13:59.182Z,1.93
2023-04-12T08:17:03.051Z,1.67
2023-04-12T08:20:08.190Z,2.10
2023-04-12T08:23:13.687Z,2.10
2023-04-12T08:26:17.724Z,2.37
2023-04-12T08:29:21.305Z,1.63
2023-04-12T08:32:26.105Z,2.37
2023-04-12T08:35:29.862Z,2.10
2023-04-12T08:38:44.974Z,2.00
2023-04-12T08:41:50.706Z,2.50
2023-04-12T08:44:54.570Z,2.33
2023-04-12T08:47:58.654Z,2.43
2023-04-12T08:51:02.814Z,1.97
2023-04-12T08:54:08.447Z,3.00
2023-04-12T08:57:13.855Z,2.70
2023-04-12T09:00:19.289Z,2.40
2023-04-12T09:03:22.981Z,2.30
2023-04-12T09:06:26.663Z,2.77
2023-04-12T09:09:45.203Z,2.83
2023-04-12T09:12:50.224Z,3.03
2023-04-12T09:15:54.652Z,2.37
2023-04-12T09:19:02.485Z,2.77
2023-04-12T09:22:06.252Z,2.57
2023-04-12T09:25:11.704Z,3.33
2023-04-12T09:28:25.742Z,3.17
2023-04-12T09:31:29.906Z,3.20
2023-04-12T09:34:35.926Z,2.97
2023-04-12T09:37:40.333Z,2.40
2023-04-12T09:40:45.268Z,2.73
2023-04-12T09:43:48.731Z,2.50
2023-04-12T09:46:53.258Z,2.73
2023-04-12T09:49:57.021Z,2.30
2023-04-12T09:53:02.656Z,2.23
2023-04-12T09:56:11.716Z,3.10
2023-04-12T09:59:17.915Z,2.40
2023-04-12T10:02:28.915Z,2.43
2023-04-12T10:05:32.687Z,2.70
2023-04-12T10:08:38.879Z,2.50
2023-04-12T10:11:46.533Z,2.70
2023-04-12T10:14:52.755Z,2.67
2023-04-12T10:17:57.565Z,2.67
2023-04-12T10:21:02.264Z,2.47
2023-04-12T10:24:08.014Z,2.57
2023-04-12T10:27:15.639Z,2.40
2023-04-12T10:30:25.282Z,2.63
2023-04-12T10:33:32.679Z,2.20
2023-04-12T10:36:56.763Z,3.10
2023-04-12T10:40:05.062Z,2.90
2023-04-12T10:43:28.880Z,2.83
2023-04-12T10:46:51.546Z,2.90
2023-04-12T10:50:25.345Z,2.77
2023-04-12T10:53:29.087Z,2.73
2023-04-12T10:56:40.752Z,2.60
2023-04-12T10:59:57.539Z,2.60
2023-04-12T11:03:12.923Z,2.70
2023-04-12T11:06:27.218Z,2.30
2023-04-12T11:09:41.111Z,2.20
2023-04-12T11:12:51.139Z,2.30
2023-04-12T11:15:58.336Z,2.53
2023-04-12T11:19:02.423Z,2.40
2023-04-12T11:22:07.448Z,2.37
2023-04-12T11:25:11.478Z,2.30
2023-04-12T11:28:28.722Z,2.30
2023-04-12T11:31:40.114Z,2.87
2023-04-12T11:34:47.166Z,2.20
2023-04-12T11:37:51.286Z,2.40
2023-04-12T11:40:54.844Z,2.47
2023-04-12T11:43:58.593Z,1.97
2023-04-12T11:47:05.177Z,2.40
2023-04-12T11:50:10.810Z,2.40
2023-04-12T11:53:15.994Z,2.57
2023-04-12T11:56:19.633Z,2.10
2023-04-12T11:59:23.069Z,2.70
2023-04-12T12:02:32.897Z,2.90
2023-04-12T12:05:42.335Z,2.93
2023-04-12T12:08:46.440Z,3.10
2023-04-12T12:11:50.381Z,3.37
2023-04-12T12:14:53.869Z,3.00
2023-04-12T12:18:02.499Z,2.63
2023-04-12T12:21:12.410Z,2.80
2023-04-12T12:24:18.293Z,3.43
2023-04-12T12:27:25.211Z,3.50
2023-04-12T12:30:32.326Z,3.37
2023-04-12T12:33:46.573Z,3.73
2023-04-12T12:36:57.119Z,3.30
2023-04-12T12:40:13.712Z,3.20
2023-04-12T12:43:20.930Z,3.20
2023-04-12T12:46:24.941Z,3.93
2023-04-12T12:49:31.413Z,3.33
2023-04-12T12:52:35.013Z,4.00
2023-04-12T12:55:38.941Z,4.20
2023-04-12T12:58:43.150Z,3.53
2023-04-12T13:01:46.867Z,4.07
2023-04-12T13:04:52.049Z,3.67
2023-04-12T13:07:55.674Z,3.60
2023-04-12T13:10:59.120Z,3.60
2023-04-12T13:14:27.534Z,3.50
2023-04-12T13:17:53.006Z,3.57
2023-04-12T13:21:02.309Z,4.20
2023-04-12T13:24:09.519Z,3.87
2023-04-12T13:27:39.825Z,3.70
2023-04-12T13:30:43.578Z,4.33
2023-04-12T13:33:47.083Z,3.77
2023-04-12T13:36:52.199Z,4.50
2023-04-12T13:39:55.803Z,3.90
2023-04-12T13:42:59.514Z,3.97
2023-04-12T13:46:03.780Z,4.90
2023-04-12T13:49:07.353Z,4.37
2023-04-12T13:52:14.613Z,4.47
2023-04-12T13:55:22.774Z,4.50
2023-04-12T13:58:26.515Z,4.67
2023-04-12T14:01:30.030Z,4.53
2023-04-12T14:04:34.150Z,3.80
2023-04-12T14:07:39.214Z,4.43
2023-04-12T14:10:42.828Z,4.50
2023-04-12T14:13:49.518Z,4.77
2023-04-12T14:16:57.236Z,3.70
2023-04-12T14:20:01.478Z,3.93
2023-04-12T14:23:11.506Z,4.13
2023-04-12T14:26:17.179Z,3.60
2023-04-12T14:29:27.262Z,3.47
2023-04-12T14:32:30.966Z,4.00
2023-04-12T14:35:34.659Z,3.60
2023-04-12T14:38:42.984Z,3.80
2023-04-12T14:41:46.547Z,3.87
2023-04-12T14:44:50.230Z,4.20
2023-04-12T14:47:53.818Z,3.60
2023-04-12T14:50:57.315Z,3.93
2023-04-12T14:54:02.624Z,3.37
2023-04-12T14:57:06.703Z,3.90
2023-04-12T15:00:15.547Z,3.27
2023-04-12T15:03:20.944Z,3.40
2023-04-12T15:06:27.314Z,3.07
2023-04-12T15:09:32.462Z,3.40
2023-04-12T15:12:37.405Z,3.93
2023-04-12T15:15:41.766Z,3.33
2023-04-12T15:18:45.804Z,3.87
2023-04-12T15:21:51.119Z,3.33
2023-04-12T15:24:58.249Z,2.90
2023-04-12T15:28:01.956Z,3.00
2023-04-12T15:31:06.334Z,3.30
2023-04-12T15:34:10.273Z,3.10
2023-04-12T15:37:14.548Z,3.77
2023-04-12T15:40:21.260Z,3.23
2023-04-12T15:43:25.422Z,2.80
2023-04-12T15:46:29.225Z,2.83
2023-04-12T15:49:35.579Z,3.00
2023-04-12T15:52:42.912Z,3.50
2023-04-12T15:55:48.789Z,2.73
2023-04-12T15:58:52.701Z,3.33
2023-04-12T16:01:56.405Z,3.40
2023-04-12T16:05:00.646Z,3.03
2023-04-12T16:08:05.026Z,5.13
2023-04-12T16:11:12.501Z,4.67
2023-04-12T16:14:16.517Z,4.13
2023-04-12T16:17:20.999Z,5.13
2023-04-12T16:20:25.587Z,5.90
2023-04-12T16:23:29.541Z,6.03
2023-04-12T16:26:35.018Z,5.93
2023-04-12T16:29:38.914Z,6.30
2023-04-12T16:32:42.794Z,4.93
2023-04-12T16:35:46.650Z,4.00
2023-04-12T16:38:51.360Z,3.70
2023-04-12T16:41:57.314Z,4.30
2023-04-12T16:45:01.406Z,4.77
2023-04-12T16:48:05.595Z,5.07
2023-04-12T16:51:09.378Z,3.83
2023-04-12T16:54:13.008Z,4.00
2023-04-12T16:57:18.915Z,3.37
2023-04-12T17:00:23.863Z,4.13
2023-04-12T17:03:36.610Z,4.10
2023-04-12T17:06:41.576Z,4.50
2023-04-12T17:09:45.320Z,5.00
2023-04-12T17:12:52.883Z,4.40
2023-04-12T17:15:56.838Z,3.93
2023-04-12T17:19:00.801Z,4.70
2023-04-12T17:22:05.092Z,4.17
2023-04-12T17:25:10.768Z,5.40
2023-04-12T17:28:15.919Z,4.87
2023-04-12T17:31:22.534Z,4.50
2023-04-12T17:34:26.426Z,4.60
2023-04-12T17:37:30.042Z,5.13
2023-04-12T17:40:33.609Z,5.80
2023-04-12T17:43:38.841Z,4.50
2023-04-12T17:46:43.677Z,3.00
2023-04-12T17:49:47.686Z,1.80
2023-04-12T17:52:51.848Z,2.50
2023-04-12T17:55:55.370Z,1.80
2023-04-12T17:59:02.123Z,1.60
2023-04-12T18:02:06.137Z,1.90
2023-04-12T18:05:10.645Z,2.20
2023-04-12T18:08:15.195Z,1.90
2023-04-12T18:11:19.116Z,2.00
2023-04-12T18:14:24.900Z,1.90
2023-04-12T18:17:40.377Z,2.10
2023-04-12T18:20:47.259Z,1.70
2023-04-12T18:23:52.182Z,2.80
2023-04-12T18:26:56.484Z,2.23
2023-04-12T18:30:09.494Z,2.20
2023-04-12T18:33:13.364Z,3.40
2023-04-12T18:36:17.214Z,2.27
2023-04-12T18:39:21.560Z,2.30
2023-04-12T18:42:25.670Z,2.17
2023-04-12T18:45:41.597Z,2.17
2023-04-12T18:48:46.607Z,2.40
2023-04-12T18:51:50.305Z,2.50
2023-04-12T18:54:53.957Z,2.40
2023-04-12T18:57:57.671Z,2.30
2023-04-12T19:01:02.982Z,2.43
2023-04-12T19:04:07.013Z,2.50
2023-04-12T19:07:17.910Z,3.10
2023-04-12T19:10:28.260Z,3.87
2023-04-12T19:13:32.300Z,3.90
2023-04-12T19:16:37.835Z,3.37
2023-04-12T19:19:41.763Z,3.43
2023-04-12T19:22:45.566Z,3.50
2023-04-12T19:25:49.917Z,2.97
2023-04-12T19:28:55.738Z,4.00
2023-04-12T19:32:03.381Z,3.40
2023-04-12T19:35:10.193Z,3.00
2023-04-12T19:38:16.369Z,3.10
2023-04-12T19:41:21.283Z,3.53
2023-04-12T19:44:27.251Z,3.93
2023-04-12T19:47:54.770Z,4.27
2023-04-12T19:50:59.106Z,5.07
2023-04-12T19:54:03.708Z,4.47
2023-04-12T19:57:08.728Z,4.23
2023-04-12T20:00:19.888Z,4.27
2023-04-12T20:03:28.666Z,4.10
2023-04-12T20:06:32.598Z,4.93
2023-04-12T20:09:37.774Z,5.27
2023-04-12T20:12:42.104Z,6.07
2023-04-12T20:15:46.264Z,5.83
2023-04-12T20:18:58.040Z,5.70
2023-04-12T20:22:04.015Z,5.70
2023-04-12T20:25:10.914Z,5.53
2023-04-12T20:28:14.820Z,6.27
2023-04-12T20:31:19.449Z,6.33
2023-04-12T20:34:26.666Z,7.27
2023-04-12T20:37:30.272Z,6.87
2023-04-12T20:40:34.487Z,7.57
2023-04-12T20:43:45.176Z,7.63
2023-04-12T20:46:49.033Z,7.67
2023-04-12T20:49:57.117Z,8.57
2023-04-12T20:53:00.701Z,8.83
2023-04-12T20:56:04.507Z,8.80
2023-04-12T20:59:08.223Z,8.97
2023-04-12T21:02:13.237Z,9.53
2023-04-12T21:05:18.487Z,10.33
2023-04-12T21:08:22.796Z,10.60
2023-04-12T21:11:27.238Z,9.63
2023-04-12T21:14:30.789Z,9.13
2023-04-12T21:17:37.382Z,8.97
2023-04-12T21:20:42.608Z,8.67
2023-04-12T21:23:46.356Z,7.70
2023-04-12T21:26:57.447Z,7.70
2023-04-12T21:30:01.329Z,7.63
2023-04-12T21:33:05.027Z,7.20
2023-04-12T21:36:12.623Z,7.50
2023-04-12T21:39:16.304Z,7.70
2023-04-12T21:42:19.934Z,6.87
2023-04-12T21:45:39.030Z,6.60
2023-04-12T21:48:42.612Z,7.97
2023-04-12T21:51:49.301Z,7.20
2023-04-12T21:54:52.968Z,6.97
2023-04-12T21:57:56.501Z,7.37
2023-04-12T22:01:00.373Z,6.30
2023-04-12T22:04:04.861Z,7.03
2023-04-12T22:07:12.723Z,6.93
2023-04-12T22:10:16.405Z,6.93
2023-04-12T22:13:23.646Z,6.20
2023-04-12T22:16:28.126Z,5.97
2023-04-12T22:19:31.739Z,6.33
2023-04-12T22:22:38.140Z,6.03
2023-04-12T22:25:42.305Z,5.87
2023-04-12T22:28:48.511Z,6.27
2023-04-12T22:31:52.750Z,6.70
2023-04-12T22:35:08.463Z,7.37
2023-04-12T22:38:14.728Z,6.47
2023-04-12T22:41:19.192Z,6.07
2023-04-12T22:44:23.059Z,6.93
2023-04-12T22:47:28.124Z,6.50
2023-04-12T22:50:32.648Z,7.20
2023-04-12T22:53:37.738Z,7.53
2023-04-12T22:56:45.517Z,6.63
2023-04-12T22:59:49.028Z,6.70
2023-04-12T23:02:53.910Z,7.73
2023-04-12T23:05:57.901Z,7.50
2023-04-12T23:09:05.730Z,7.33
2023-04-12T23:12:09.348Z,7.97
2023-04-12T23:15:13.368Z,7.43
2023-04-12T23:18:17.199Z,8.03
2023-04-12T23:21:20.797Z,8.10
2023-04-12T23:24:25.892Z,8.30
2023-04-12T23:27:30.000Z,8.50
2023-04-12T23:30:33.606Z,8.07
2023-04-12T23:33:38.757Z,8.90
2023-04-12T23:36:42.341Z,8.53
2023-04-12T23:39:47.395Z,8.73
2023-04-12T23:42:50.911Z,7.93
2023-04-12T23:45:55.012Z,8.80
2023-04-12T23:48:58.569Z,9.03
2023-04-12T23:52:02.070Z,8.50
2023-04-12T23:55:08.603Z,7.90
2023-04-12T23:58:12.519Z,9.73
